createdAt,value
2023-02-11T00:01:28.597Z,0.50
2023-02-11T00:03:57.208Z,0.50
2023-02-11T00:06:26.576Z,0.50
2023-02-11T00:08:56.484Z,0.60
2023-02-11T00:11:30.140Z,0.60
2023-02-11T00:13:58.267Z,0.70
2023-02-11T00:16:26.443Z,0.70
2023-02-11T00:18:54.440Z,0.70
2023-02-11T00:21:24.052Z,0.70
2023-02-11T00:23:52.619Z,0.70
2023-02-11T00:26:23.615Z,0.70
2023-02-11T00:28:52.755Z,0.70
2023-02-11T00:31:22.449Z,0.70
2023-02-11T00:33:50.564Z,0.70
2023-02-11T00:36:20.933Z,0.80
2023-02-11T00:38:50.790Z,0.90
2023-02-11T00:41:19.510Z,0.90
2023-02-11T00:43:49.131Z,0.90
2023-02-11T00:46:17.348Z,0.80
2023-02-11T00:48:45.308Z,0.80
2023-02-11T00:51:13.668Z,0.80
2023-02-11T00:53:41.709Z,0.90
2023-02-11T00:56:10.532Z,0.90
2023-02-11T00:58:38.560Z,0.80
2023-02-11T01:01:08.004Z,0.90
2023-02-11T01:03:36.186Z,1.00
2023-02-11T01:06:04.399Z,1.10
2023-02-11T01:08:32.324Z,1.00
2023-02-11T01:11:03.248Z,0.90
2023-02-11T01:13:32.454Z,0.90
2023-02-11T01:16:01.067Z,0.70
2023-02-11T01:18:30.647Z,0.70
2023-02-11T01:20:58.527Z,0.70
2023-02-11T01:23:26.911Z,0.70
2023-02-11T01:25:55.428Z,0.80
2023-02-11T01:28:24.781Z,0.90
2023-02-11T01:30:52.792Z,0.90
2023-02-11T01:33:21.136Z,1.00
2023-02-11T01:35:51.349Z,1.10
2023-02-11T01:38:21.276Z,1.20
2023-02-11T01:40:50.596Z,1.20
2023-02-11T01:43:18.922Z,1.20
2023-02-11T01:46:02.298Z,1.20
2023-02-11T01:48:33.876Z,1.20
2023-02-11T01:51:08.200Z,1.20
2023-02-11T01:53:55.082Z,1.20
2023-02-11T01:56:42.766Z,1.20
2023-02-11T01:59:16.049Z,1.20
2023-02-11T02:01:47.893Z,1.30
2023-02-11T02:04:19.397Z,1.30
2023-02-11T02:06:51.799Z,1.40
2023-02-11T02:09:24.212Z,1.40
2023-02-11T02:11:52.445Z,1.50
2023-02-11T02:14:20.693Z,1.50
2023-02-11T02:16:48.739Z,1.50
2023-02-11T02:20:01.587Z,1.50
2023-02-11T02:23:07.259Z,1.50
2023-02-11T02:26:04.272Z,1.60
2023-02-11T02:29:01.903Z,1.70
2023-02-11T02:31:50.852Z,1.70
2023-02-11T02:34:29.966Z,1.60
2023-02-11T02:37:05.718Z,1.60
2023-02-11T02:39:37.364Z,1.60
2023-02-11T02:42:06.155Z,1.70
2023-02-11T02:44:35.142Z,1.80
2023-02-11T02:47:03.068Z,1.90
2023-02-11T02:49:32.326Z,2.00
2023-02-11T02:52:18.505Z,2.00
2023-02-11T02:55:08.646Z,2.00
2023-02-11T02:57:48.467Z,1.90
2023-02-11T03:00:24.959Z,1.80
2023-02-11T03:03:05.138Z,1.80
2023-02-11T03:05:45.234Z,1.80
2023-02-11T03:08:19.396Z,1.80
2023-02-11T03:10:50.810Z,1.90
2023-02-11T03:13:21.875Z,2.00
2023-02-11T03:15:53.768Z,2.00
2023-02-11T03:18:25.649Z,1.90
2023-02-11T03:20:57.880Z,1.90
2023-02-11T03:23:30.585Z,1.90
2023-02-11T03:26:03.806Z,1.70
2023-02-11T03:28:37.083Z,1.70
2023-02-11T03:31:13.170Z,1.80
2023-02-11T03:33:47.682Z,1.80
2023-02-11T03:36:23.908Z,1.80
2023-02-11T03:38:56.178Z,1.80
2023-02-11T03:41:25.914Z,1.80
2023-02-11T03:43:56.848Z,1.90
2023-02-11T03:46:30.021Z,1.90
2023-02-11T03:49:02.099Z,1.90
2023-02-11T03:51:33.894Z,1.90
2023-02-11T03:54:05.720Z,1.80
2023-02-11T03:56:39.322Z,1.80
2023-02-11T03:59:07.248Z,1.70
2023-02-11T04:01:35.568Z,1.80
2023-02-11T04:04:03.602Z,1.70
2023-02-11T04:06:33.107Z,1.90
2023-02-11T04:09:01.087Z,1.90
2023-02-11T04:11:28.987Z,1.90
2023-02-11T04:13:56.839Z,2.00
2023-02-11T04:16:24.935Z,1.90
2023-02-11T04:18:52.859Z,1.80
2023-02-11T04:21:20.738Z,1.80
2023-02-11T04:23:50.118Z,1.80
2023-02-11T04:26:17.967Z,1.80
2023-02-11T04:28:45.788Z,1.80
2023-02-11T04:31:13.852Z,1.90
2023-02-11T04:33:41.819Z,1.90
2023-02-11T04:36:09.722Z,1.90
2023-02-11T04:38:37.788Z,1.90
2023-02-11T04:41:07.161Z,1.90
2023-02-11T04:43:35.060Z,1.90
2023-02-11T04:46:03.041Z,1.90
2023-02-11T04:48:30.955Z,1.90
2023-02-11T04:50:58.815Z,1.90
2023-02-11T04:53:26.739Z,2.00
2023-02-11T04:55:54.645Z,2.00
2023-02-11T04:58:24.270Z,2.10
2023-02-11T05:00:52.222Z,2.20
2023-02-11T05:03:20.179Z,2.20
2023-02-11T05:05:48.297Z,2.10
2023-02-11T05:08:16.460Z,2.00
2023-02-11T05:10:48.059Z,1.80
2023-02-11T05:13:16.341Z,1.80
2023-02-11T05:15:45.693Z,1.80
2023-02-11T05:18:14.829Z,1.70
2023-02-11T05:20:42.967Z,1.50
2023-02-11T05:23:11.016Z,1.40
2023-02-11T05:25:39.545Z,1.30
2023-02-11T05:28:07.670Z,1.30
2023-02-11T05:30:35.703Z,1.40
2023-02-11T05:33:05.100Z,1.40
2023-02-11T05:35:33.247Z,1.40
2023-02-11T05:38:01.152Z,1.30
2023-02-11T05:40:29.047Z,1.30
2023-02-11T05:42:56.878Z,1.30
2023-02-11T05:45:24.773Z,1.30
2023-02-11T05:47:52.733Z,1.30
2023-02-11T05:50:22.141Z,1.30
2023-02-11T05:52:50.290Z,1.30
2023-02-11T05:55:18.520Z,1.40
2023-02-11T05:57:46.447Z,1.40
2023-02-11T06:00:15.752Z,1.40
2023-02-11T06:02:43.760Z,1.40
2023-02-11T06:05:11.737Z,1.40
2023-02-11T06:07:41.033Z,1.40
2023-02-11T06:10:10.391Z,1.40
2023-02-11T06:12:38.973Z,1.40
2023-02-11T06:15:07.823Z,1.30
2023-02-11T06:17:36.610Z,1.30
2023-02-11T06:20:07.724Z,1.30
2023-02-11T06:22:35.700Z,1.30
2023-02-11T06:25:05.182Z,1.30
2023-02-11T06:27:33.078Z,1.30
2023-02-11T06:30:01.009Z,1.20
2023-02-11T06:32:46.121Z,1.20
2023-02-11T06:35:15.340Z,1.30
2023-02-11T06:37:43.552Z,1.30
2023-02-11T06:40:13.696Z,1.40
2023-02-11T06:42:41.838Z,1.40
2023-02-11T06:45:11.030Z,1.40
2023-02-11T06:47:39.123Z,1.40
2023-02-11T06:50:09.138Z,1.40
2023-02-11T06:52:36.945Z,1.40
2023-02-11T06:55:05.264Z,1.30
2023-02-11T06:57:34.528Z,1.20
2023-02-11T07:00:02.685Z,1.20
2023-02-11T07:02:30.655Z,1.20
2023-02-11T07:04:58.628Z,1.10
2023-02-11T07:07:26.516Z,1.10
2023-02-11T07:09:54.418Z,1.10
2023-02-11T07:12:22.283Z,1.20
2023-02-11T07:14:52.898Z,1.20
2023-02-11T07:17:20.772Z,1.30
2023-02-11T07:19:48.688Z,1.50
2023-02-11T07:22:16.717Z,1.70
2023-02-11T07:24:47.874Z,1.90
2023-02-11T07:27:15.826Z,2.00
2023-02-11T07:29:46.979Z,1.90
2023-02-11T07:32:16.831Z,2.00
2023-02-11T07:34:45.528Z,2.10
2023-02-11T07:37:13.442Z,2.30
2023-02-11T07:39:41.840Z,2.50
2023-02-11T07:42:09.830Z,2.70
2023-02-11T07:44:37.925Z,2.90
2023-02-11T07:47:05.933Z,3.00
2023-02-11T07:49:35.258Z,3.10
2023-02-11T07:52:03.157Z,3.10
2023-02-11T07:54:31.079Z,3.20
2023-02-11T07:56:58.907Z,3.30
2023-02-11T07:59:27.434Z,3.40
2023-02-11T08:01:55.530Z,3.40
2023-02-11T08:04:23.606Z,3.30
2023-02-11T08:06:56.504Z,3.30
2023-02-11T08:09:25.770Z,3.50
2023-02-11T08:11:53.776Z,3.60
2023-02-11T08:14:21.545Z,3.70
2023-02-11T08:16:49.498Z,3.70
2023-02-11T08:19:18.393Z,3.70
2023-02-11T08:21:47.002Z,3.80
2023-02-11T08:24:16.430Z,3.90
2023-02-11T08:26:45.367Z,4.00
2023-02-11T08:29:15.495Z,4.00
2023-02-11T08:31:45.839Z,4.20
2023-02-11T08:34:18.544Z,4.20
2023-02-11T08:36:48.139Z,4.40
2023-02-11T08:39:20.821Z,4.50
2023-02-11T08:41:50.135Z,4.40
2023-02-11T08:44:18.572Z,4.20
2023-02-11T08:46:46.414Z,4.10
2023-02-11T08:49:14.606Z,4.10
2023-02-11T08:51:43.154Z,4.30
2023-02-11T08:54:11.438Z,4.40
2023-02-11T08:56:40.783Z,4.60
2023-02-11T08:59:11.018Z,4.90
2023-02-11T09:01:38.970Z,5.00
2023-02-11T09:04:06.875Z,5.10
2023-02-11T09:06:35.278Z,5.50
2023-02-11T09:09:03.154Z,5.90
2023-02-11T09:11:33.617Z,6.10
2023-02-11T09:14:03.583Z,6.20
2023-02-11T09:16:34.015Z,6.20
2023-02-11T09:19:04.336Z,6.30
2023-02-11T09:21:32.658Z,6.50
2023-02-11T09:24:00.521Z,6.50
2023-02-11T09:26:30.429Z,6.40
2023-02-11T09:28:58.793Z,6.50
2023-02-11T09:31:30.508Z,6.50
2023-02-11T09:34:00.859Z,6.50
2023-02-11T09:36:30.927Z,6.60
2023-02-11T09:39:00.672Z,6.70
2023-02-11T09:42:02.998Z,6.40
2023-02-11T09:44:34.488Z,6.10
2023-02-11T09:47:05.834Z,5.80
2023-02-11T09:49:40.835Z,5.80
2023-02-11T09:52:17.940Z,5.70
2023-02-11T09:54:54.730Z,5.70
2023-02-11T09:57:28.671Z,5.70
2023-02-11T09:59:57.873Z,5.80
2023-02-11T10:02:37.925Z,5.80
2023-02-11T10:05:20.398Z,5.80
2023-02-11T10:07:57.847Z,5.80
2023-02-11T10:10:43.006Z,5.80
2023-02-11T10:13:27.567Z,5.80
2023-02-11T10:16:04.639Z,5.90
2023-02-11T10:18:47.782Z,6.00
2023-02-11T10:21:24.715Z,6.10
2023-02-11T10:23:57.903Z,6.30
2023-02-11T10:26:30.818Z,6.50
2023-02-11T10:29:06.523Z,6.50
2023-02-11T10:31:39.864Z,6.60
2023-02-11T10:34:12.651Z,6.80
2023-02-11T10:36:44.306Z,6.90
2023-02-11T10:39:14.663Z,7.10
2023-02-11T10:41:45.382Z,7.20
2023-02-11T10:44:24.261Z,7.30
2023-02-11T10:46:53.126Z,7.50
2023-02-11T10:49:40.234Z,7.70
2023-02-11T10:52:23.892Z,7.80
2023-02-11T10:55:03.328Z,7.70
2023-02-11T10:57:36.462Z,7.70
2023-02-11T11:00:21.130Z,7.70
2023-02-11T11:02:56.231Z,7.60
2023-02-11T11:05:31.362Z,7.70
2023-02-11T11:08:01.679Z,7.90
2023-02-11T11:10:35.536Z,8.00
2023-02-11T11:13:03.393Z,8.20
2023-02-11T11:15:32.839Z,8.30
2023-02-11T11:18:23.656Z,8.40
2023-02-11T11:21:00.636Z,8.40
2023-02-11T11:23:29.892Z,8.60
2023-02-11T11:26:04.942Z,8.50
2023-02-11T11:28:38.951Z,8.80
2023-02-11T11:31:13.988Z,8.80
2023-02-11T11:33:44.887Z,8.80
2023-02-11T11:36:17.611Z,9.00
2023-02-11T11:38:49.096Z,9.20
2023-02-11T11:41:19.965Z,9.10
2023-02-11T11:44:15.548Z,9.10
2023-02-11T11:46:45.894Z,9.10
2023-02-11T11:49:29.143Z,9.20
2023-02-11T11:52:12.759Z,9.40
2023-02-11T11:54:44.472Z,9.40
2023-02-11T11:57:17.103Z,9.50
2023-02-11T11:59:45.119Z,9.60
2023-02-11T12:02:30.741Z,9.50
2023-02-11T12:05:04.196Z,9.40
2023-02-11T12:07:44.451Z,9.20
2023-02-11T12:10:40.774Z,9.10
2023-02-11T12:13:25.028Z,9.20
2023-02-11T12:16:01.469Z,9.30
2023-02-11T12:18:47.531Z,9.40
2023-02-11T12:21:38.767Z,9.50
2023-02-11T12:24:29.528Z,9.60
2023-02-11T12:27:02.988Z,9.60
2023-02-11T12:29:38.394Z,9.80
2023-02-11T12:32:21.572Z,9.70
2023-02-11T12:35:17.639Z,9.90
2023-02-11T12:38:01.865Z,9.90
2023-02-11T12:40:40.920Z,10.00
2023-02-11T12:43:19.536Z,10.00
2023-02-11T12:46:23.713Z,9.90
2023-02-11T12:49:28.859Z,9.80
2023-02-11T12:52:12.469Z,9.40
2023-02-11T12:54:45.448Z,9.30
2023-02-11T12:57:20.564Z,9.20
2023-02-11T12:59:58.949Z,9.00
2023-02-11T13:02:36.033Z,8.80
2023-02-11T13:05:14.186Z,8.80
2023-02-11T13:07:45.960Z,8.70
2023-02-11T13:10:27.137Z,8.80
2023-02-11T13:13:15.587Z,8.70
2023-02-11T13:15:45.122Z,8.70
2023-02-11T13:18:23.396Z,8.60
2023-02-11T13:20:56.519Z,8.60
2023-02-11T13:23:32.330Z,8.60
2023-02-11T13:26:06.575Z,8.60
2023-02-11T13:28:45.573Z,8.70
2023-02-11T13:31:16.221Z,8.80
2023-02-11T13:33:45.860Z,8.90
2023-02-11T13:36:22.291Z,8.90
2023-02-11T13:38:56.826Z,9.00
2023-02-11T13:41:32.419Z,9.10
2023-02-11T13:44:05.248Z,9.10
2023-02-11T13:46:50.418Z,9.10
2023-02-11T13:49:24.339Z,9.00
2023-02-11T13:51:53.221Z,9.00
2023-02-11T13:54:26.680Z,8.90
2023-02-11T13:57:22.611Z,8.90
2023-02-11T13:59:53.322Z,8.80
2023-02-11T14:02:46.996Z,8.70
2023-02-11T14:05:50.925Z,8.60
2023-02-11T14:08:39.809Z,8.50
2023-02-11T14:11:24.183Z,8.50
2023-02-11T14:14:23.746Z,8.40
2023-02-11T14:17:33.897Z,8.50
2023-02-11T14:20:04.578Z,8.50
2023-02-11T14:22:43.379Z,8.50
2023-02-11T14:25:22.831Z,8.40
2023-02-11T14:27:55.303Z,8.50
2023-02-11T14:30:31.027Z,8.50
2023-02-11T14:33:40.869Z,8.50
2023-02-11T14:36:20.901Z,8.50
2023-02-11T14:39:01.690Z,8.40
2023-02-11T14:41:32.999Z,8.40
2023-02-11T14:44:02.809Z,8.40
2023-02-11T14:46:32.779Z,8.40
2023-02-11T14:49:04.353Z,8.40
2023-02-11T14:51:36.189Z,8.40
2023-02-11T14:54:13.297Z,8.30
2023-02-11T14:56:42.220Z,8.30
2023-02-11T14:59:18.203Z,8.30
2023-02-11T15:01:49.993Z,8.20
2023-02-11T15:04:27.825Z,8.30
2023-02-11T15:06:59.272Z,8.20
2023-02-11T15:09:33.920Z,8.20
2023-02-11T15:12:02.212Z,8.10
2023-02-11T15:14:32.853Z,8.10
2023-02-11T15:17:04.378Z,8.10
2023-02-11T15:19:36.661Z,8.10
2023-02-11T15:22:06.840Z,8.10
2023-02-11T15:24:36.142Z,8.10
2023-02-11T15:27:05.601Z,8.10
2023-02-11T15:29:38.329Z,8.10
2023-02-11T15:32:08.720Z,8.00
2023-02-11T15:34:38.233Z,8.00
2023-02-11T15:37:06.863Z,7.90
2023-02-11T15:39:38.153Z,7.90
2023-02-11T15:42:24.447Z,7.80
2023-02-11T15:45:11.742Z,7.90
2023-02-11T15:47:41.331Z,7.90
2023-02-11T15:50:21.843Z,7.90
2023-02-11T15:52:50.777Z,7.90
2023-02-11T15:55:19.951Z,7.90
2023-02-11T15:57:52.707Z,7.80
2023-02-11T16:00:24.505Z,7.80
2023-02-11T16:02:53.029Z,7.80
2023-02-11T16:05:30.861Z,7.80
2023-02-11T16:07:59.533Z,7.70
2023-02-11T16:10:30.202Z,7.80
2023-02-11T16:13:04.798Z,7.80
2023-02-11T16:15:44.850Z,7.80
2023-02-11T16:18:37.422Z,7.70
2023-02-11T16:21:13.211Z,7.70
2023-02-11T16:23:43.176Z,7.60
2023-02-11T16:26:23.178Z,7.70
2023-02-11T16:28:51.721Z,7.80
2023-02-11T16:31:20.282Z,7.80
2023-02-11T16:33:48.199Z,7.80
2023-02-11T16:36:18.231Z,7.70
2023-02-11T16:38:46.273Z,7.70
2023-02-11T16:41:14.333Z,7.70
2023-02-11T16:43:42.265Z,7.60
2023-02-11T16:46:15.012Z,7.40
2023-02-11T16:48:42.941Z,7.30
2023-02-11T16:51:12.813Z,7.30
2023-02-11T16:53:42.118Z,7.20
2023-02-11T16:56:17.214Z,7.20
2023-02-11T16:58:46.027Z,7.20
2023-02-11T17:01:14.419Z,7.20
2023-02-11T17:03:43.566Z,7.20
2023-02-11T17:06:12.655Z,7.20
2023-02-11T17:08:41.948Z,7.20
2023-02-11T17:11:09.982Z,7.20
2023-02-11T17:13:39.476Z,7.30
2023-02-11T17:16:11.270Z,7.40
2023-02-11T17:18:39.233Z,7.50
2023-02-11T17:21:08.169Z,7.50
2023-02-11T17:23:36.025Z,7.40
2023-02-11T17:26:05.705Z,7.40
2023-02-11T17:28:34.082Z,7.30
2023-02-11T17:31:02.548Z,7.30
2023-02-11T17:33:30.519Z,7.30
2023-02-11T17:35:58.383Z,7.20
2023-02-11T17:38:26.242Z,7.30
2023-02-11T17:41:01.167Z,7.30
2023-02-11T17:43:30.443Z,7.30
2023-02-11T17:45:58.587Z,7.40
2023-02-11T17:48:26.437Z,7.40
2023-02-11T17:50:54.299Z,7.40
2023-02-11T17:53:22.302Z,7.40
2023-02-11T17:55:50.518Z,7.40
2023-02-11T17:58:18.704Z,7.40
2023-02-11T18:00:48.099Z,7.40
2023-02-11T18:03:16.161Z,7.40
2023-02-11T18:05:44.072Z,7.40
2023-02-11T18:08:12.053Z,7.30
2023-02-11T18:10:42.912Z,7.30
2023-02-11T18:13:10.834Z,7.30
2023-02-11T18:15:38.730Z,7.30
2023-02-11T18:18:08.017Z,7.30
2023-02-11T18:20:35.955Z,7.30
2023-02-11T18:23:04.147Z,7.20
2023-02-11T18:25:32.072Z,7.20
2023-02-11T18:28:00.003Z,7.20
2023-02-11T18:30:27.961Z,7.20
2023-02-11T18:32:56.496Z,7.20
2023-02-11T18:35:25.828Z,7.20
2023-02-11T18:37:53.978Z,7.20
2023-02-11T18:40:22.322Z,7.20
2023-02-11T18:42:50.163Z,7.10
2023-02-11T18:45:18.668Z,7.10
2023-02-11T18:47:46.596Z,7.10
2023-02-11T18:50:15.988Z,7.10
2023-02-11T18:52:45.480Z,7.10
2023-02-11T18:55:13.388Z,7.10
2023-02-11T18:57:42.899Z,7.10
2023-02-11T19:00:12.067Z,7.10
2023-02-11T19:02:40.038Z,7.10
2023-02-11T19:05:08.599Z,7.10
2023-02-11T19:07:36.895Z,7.10
2023-02-11T19:10:07.277Z,7.10
2023-02-11T19:12:35.186Z,7.10
2023-02-11T19:15:03.202Z,7.00
2023-02-11T19:17:31.142Z,6.90
2023-02-11T19:19:59.051Z,6.90
2023-02-11T19:22:26.930Z,7.00
2023-02-11T19:24:54.842Z,7.00
2023-02-11T19:27:24.094Z,6.80
2023-02-11T19:29:52.028Z,6.80
2023-02-11T19:32:19.993Z,6.90
2023-02-11T19:34:47.917Z,6.90
2023-02-11T19:37:16.176Z,6.90
2023-02-11T19:39:44.763Z,6.80
2023-02-11T19:42:13.535Z,6.80
2023-02-11T19:44:43.983Z,6.70
2023-02-11T19:47:13.625Z,6.60
2023-02-11T19:49:41.627Z,6.60
2023-02-11T19:52:09.711Z,6.60
2023-02-11T19:54:39.191Z,6.60
2023-02-11T19:57:07.037Z,6.60
2023-02-11T19:59:34.949Z,6.60
2023-02-11T20:02:04.210Z,6.60
2023-02-11T20:04:32.202Z,6.60
2023-02-11T20:07:00.228Z,6.60
2023-02-11T20:09:29.008Z,6.60
2023-02-11T20:11:56.964Z,6.70
2023-02-11T20:14:27.753Z,6.70
2023-02-11T20:16:55.978Z,6.70
2023-02-11T20:19:25.292Z,6.70
2023-02-11T20:21:55.851Z,6.60
2023-02-11T20:24:25.367Z,6.50
2023-02-11T20:26:55.516Z,6.50
2023-02-11T20:29:24.329Z,6.50
2023-02-11T20:31:52.354Z,6.40
2023-02-11T20:34:21.668Z,6.40
2023-02-11T20:36:52.731Z,6.30
2023-02-11T20:39:22.128Z,6.40
2023-02-11T20:41:51.001Z,6.30
2023-02-11T20:44:19.411Z,6.30
2023-02-11T20:46:47.492Z,6.30
2023-02-11T20:49:18.757Z,6.40
2023-02-11T20:51:47.080Z,6.40
2023-02-11T20:54:18.407Z,6.40
2023-02-11T20:56:48.253Z,6.40
2023-02-11T20:59:17.561Z,6.30
2023-02-11T21:01:48.301Z,6.30
2023-02-11T21:04:18.709Z,6.30
2023-02-11T21:06:48.771Z,6.30
2023-02-11T21:09:20.702Z,6.30
2023-02-11T21:11:49.010Z,6.30
2023-02-11T21:14:17.894Z,6.30
2023-02-11T21:16:46.080Z,6.40
2023-02-11T21:19:13.991Z,6.40
2023-02-11T21:21:42.900Z,6.30
2023-02-11T21:24:11.684Z,6.40
2023-02-11T21:26:41.341Z,6.30
2023-02-11T21:29:10.422Z,6.30
2023-02-11T21:31:38.911Z,6.30
2023-02-11T21:34:07.847Z,6.40
2023-02-11T21:36:35.817Z,6.40
2023-02-11T21:39:04.243Z,6.30
2023-02-11T21:41:32.786Z,6.30
2023-02-11T21:44:02.216Z,6.30
2023-02-11T21:46:30.789Z,6.30
2023-02-11T21:49:00.363Z,6.30
2023-02-11T21:51:28.597Z,6.30
2023-02-11T21:53:58.107Z,6.40
2023-02-11T21:56:27.979Z,6.30
2023-02-11T21:58:57.723Z,6.30
2023-02-11T22:01:29.148Z,6.30
2023-02-11T22:03:57.827Z,6.30
2023-02-11T22:06:27.426Z,6.30
2023-02-11T22:08:56.265Z,6.30
2023-02-11T22:11:25.113Z,6.30
2023-02-11T22:13:56.377Z,6.30
2023-02-11T22:16:26.692Z,6.40
2023-02-11T22:18:54.799Z,6.40
2023-02-11T22:21:23.991Z,6.30
2023-02-11T22:23:52.832Z,6.40
2023-02-11T22:26:22.690Z,6.40
2023-02-11T22:28:53.658Z,6.40
2023-02-11T22:31:23.885Z,6.30
2023-02-11T22:33:53.175Z,6.30
2023-02-11T22:36:22.896Z,6.30
2023-02-11T22:38:51.446Z,6.20
2023-02-11T22:41:20.306Z,6.20
2023-02-11T22:43:48.517Z,6.20
2023-02-11T22:46:18.449Z,6.20
2023-02-11T22:48:47.099Z,6.20
2023-02-11T22:51:19.324Z,6.20
2023-02-11T22:53:50.823Z,6.20
2023-02-11T22:56:18.902Z,6.20
2023-02-11T22:58:47.134Z,6.20
2023-02-11T23:01:15.357Z,6.10
2023-02-11T23:03:43.492Z,6.10
2023-02-11T23:06:12.493Z,6.20
2023-02-11T23:08:43.020Z,6.20
2023-02-11T23:11:13.968Z,6.20
2023-02-11T23:13:43.762Z,6.20
2023-02-11T23:16:14.040Z,6.30
2023-02-11T23:18:43.967Z,6.30
2023-02-11T23:21:16.443Z,6.20
2023-02-11T23:23:46.121Z,6.20
2023-02-11T23:26:16.216Z,6.20
2023-02-11T23:28:45.931Z,6.20
2023-02-11T23:31:16.406Z,6.30
2023-02-11T23:33:44.635Z,6.20
2023-02-11T23:36:12.878Z,6.20
2023-02-11T23:38:40.895Z,6.10
2023-02-11T23:41:10.816Z,6.10
2023-02-11T23:43:39.033Z,6.10
2023-02-11T23:46:07.618Z,6.20
2023-02-11T23:48:37.690Z,6.20
2023-02-11T23:51:06.380Z,6.20
2023-02-11T23:53:34.370Z,6.20
2023-02-11T23:56:02.311Z,6.10
2023-02-11T23:58:31.632Z,6.10
